createdAt,value
2023-03-22T00:02:47.681Z,11.40
2023-03-22T00:05:35.276Z,11.30
2023-03-22T00:08:22.710Z,11.30
2023-03-22T00:11:10.532Z,11.30
2023-03-22T00:13:59.726Z,11.30
2023-03-22T00:16:49.152Z,11.30
2023-03-22T00:19:37.160Z,11.30
2023-03-22T00:22:25.764Z,11.30
2023-03-22T00:25:12.975Z,11.30
2023-03-22T00:27:59.872Z,11.20
2023-03-22T00:30:54.674Z,11.20
2023-03-22T00:33:41.742Z,11.30
2023-03-22T00:36:30.348Z,11.30
2023-03-22T00:39:17.499Z,11.20
2023-03-22T00:42:06.302Z,11.30
2023-03-22T00:44:53.586Z,11.30
2023-03-22T00:47:42.235Z,11.20
2023-03-22T00:50:29.268Z,11.20
2023-03-22T00:53:16.937Z,11.20
2023-03-22T00:56:04.504Z,11.30
2023-03-22T00:58:59.181Z,11.30
2023-03-22T01:01:46.700Z,11.30
2023-03-22T01:04:35.891Z,11.30
2023-03-22T01:07:24.713Z,11.20
2023-03-22T01:10:12.281Z,11.20
2023-03-22T01:12:59.285Z,11.20
2023-03-22T01:15:47.926Z,11.30
2023-03-22T01:18:35.926Z,11.10
2023-03-22T01:21:25.058Z,11.10
2023-03-22T01:24:12.273Z,11.00
2023-03-22T01:27:00.096Z,11.00
2023-03-22T01:29:47.140Z,11.10
2023-03-22T01:32:34.724Z,10.90
2023-03-22T01:35:22.097Z,10.90
2023-03-22T01:38:11.389Z,10.90
2023-03-22T01:41:07.999Z,10.80
2023-03-22T01:44:10.666Z,10.90
2023-03-22T01:46:57.442Z,10.90
2023-03-22T01:49:44.858Z,10.80
2023-03-22T01:52:32.930Z,10.80
2023-03-22T01:55:28.116Z,10.80
2023-03-22T01:58:37.515Z,10.80
2023-03-22T02:01:27.433Z,10.70
2023-03-22T02:04:20.046Z,10.80
2023-03-22T02:07:15.322Z,10.70
2023-03-22T02:10:05.169Z,10.70
2023-03-22T02:13:38.979Z,10.70
2023-03-22T02:17:06.965Z,10.80
2023-03-22T02:20:43.130Z,10.80
2023-03-22T02:23:58.927Z,10.80
2023-03-22T02:27:24.601Z,10.70
2023-03-22T02:30:41.271Z,10.80
2023-03-22T02:33:46.253Z,10.80
2023-03-22T02:37:05.740Z,10.80
2023-03-22T02:39:58.257Z,10.80
2023-03-22T02:42:55.739Z,10.70
2023-03-22T02:45:51.195Z,10.70
2023-03-22T02:48:45.327Z,10.80
2023-03-22T02:51:38.099Z,10.80
2023-03-22T02:54:29.858Z,10.80
2023-03-22T02:57:23.941Z,10.80
2023-03-22T03:00:14.208Z,10.80
2023-03-22T03:03:11.615Z,10.90
2023-03-22T03:06:03.690Z,10.80
2023-03-22T03:08:52.332Z,10.80
2023-03-22T03:11:39.518Z,10.90
2023-03-22T03:14:30.267Z,10.80
2023-03-22T03:17:29.142Z,10.80
2023-03-22T03:20:34.893Z,10.80
2023-03-22T03:23:31.337Z,10.80
2023-03-22T03:26:25.039Z,10.80
2023-03-22T03:29:19.907Z,10.80
2023-03-22T03:32:11.179Z,10.80
2023-03-22T03:35:03.754Z,10.80
2023-03-22T03:37:54.875Z,10.80
2023-03-22T03:40:45.330Z,10.70
2023-03-22T03:43:33.483Z,10.70
2023-03-22T03:46:21.160Z,10.70
2023-03-22T03:49:12.777Z,10.60
2023-03-22T03:52:01.545Z,10.60
2023-03-22T03:54:48.819Z,10.60
2023-03-22T03:57:39.674Z,10.60
2023-03-22T04:00:27.363Z,10.60
2023-03-22T04:03:50.913Z,10.60
2023-03-22T04:06:53.098Z,10.50
2023-03-22T04:09:44.048Z,10.50
2023-03-22T04:12:43.788Z,10.50
2023-03-22T04:15:36.817Z,10.60
2023-03-22T04:18:30.099Z,10.60
2023-03-22T04:21:21.824Z,10.60
2023-03-22T04:24:17.810Z,10.50
2023-03-22T04:27:08.248Z,10.60
2023-03-22T04:30:20.430Z,10.60
2023-03-22T04:33:39.314Z,10.50
2023-03-22T04:36:31.189Z,10.40
2023-03-22T04:39:38.730Z,10.50
2023-03-22T04:42:45.757Z,10.50
2023-03-22T04:45:39.148Z,10.40
2023-03-22T04:48:28.146Z,10.50
2023-03-22T04:51:16.885Z,10.50
2023-03-22T04:54:18.148Z,10.60
2023-03-22T04:57:07.065Z,10.50
2023-03-22T04:59:59.402Z,10.40
2023-03-22T05:02:46.697Z,10.50
2023-03-22T05:05:53.428Z,10.40
2023-03-22T05:08:41.908Z,10.40
2023-03-22T05:11:29.363Z,10.40
2023-03-22T05:14:36.455Z,10.40
2023-03-22T05:17:24.347Z,10.40
2023-03-22T05:20:14.742Z,10.40
2023-03-22T05:23:06.568Z,10.50
2023-03-22T05:25:55.126Z,10.50
2023-03-22T05:28:42.990Z,10.50
2023-03-22T05:31:40.357Z,10.50
2023-03-22T05:34:35.352Z,10.50
2023-03-22T05:37:31.697Z,10.50
2023-03-22T05:40:19.490Z,10.40
2023-03-22T05:43:07.266Z,10.40
2023-03-22T05:45:55.390Z,10.40
2023-03-22T05:48:56.552Z,10.40
2023-03-22T05:51:43.838Z,10.40
2023-03-22T05:54:33.134Z,10.40
2023-03-22T05:57:21.139Z,10.40
2023-03-22T06:00:14.996Z,10.50
2023-03-22T06:03:19.300Z,10.50
2023-03-22T06:06:15.833Z,10.50
2023-03-22T06:09:19.721Z,10.40
2023-03-22T06:12:11.725Z,10.30
2023-03-22T06:14:59.781Z,10.40
2023-03-22T06:18:09.690Z,10.30
2023-03-22T06:21:01.321Z,10.50
2023-03-22T06:23:49.912Z,10.40
2023-03-22T06:26:37.244Z,10.40
2023-03-22T06:29:24.442Z,10.40
2023-03-22T06:32:14.220Z,10.30
2023-03-22T06:35:01.798Z,10.40
2023-03-22T06:37:49.145Z,10.40
2023-03-22T06:40:38.082Z,10.50
2023-03-22T06:43:25.474Z,10.40
2023-03-22T06:46:18.642Z,10.50
2023-03-22T06:49:14.878Z,10.40
2023-03-22T06:52:02.193Z,10.50
2023-03-22T06:54:49.252Z,10.40
2023-03-22T06:57:38.074Z,10.50
2023-03-22T07:00:25.330Z,10.50
2023-03-22T07:03:12.444Z,10.60
2023-03-22T07:06:05.974Z,10.60
2023-03-22T07:08:56.426Z,10.60
2023-03-22T07:11:48.715Z,10.60
2023-03-22T07:14:37.307Z,10.70
2023-03-22T07:17:38.221Z,10.50
2023-03-22T07:20:25.932Z,10.50
2023-03-22T07:23:13.241Z,10.50
2023-03-22T07:26:07.784Z,10.60
2023-03-22T07:28:57.371Z,10.60
2023-03-22T07:31:49.951Z,10.70
2023-03-22T07:34:43.360Z,10.80
2023-03-22T07:37:36.262Z,10.80
2023-03-22T07:40:28.739Z,10.90
2023-03-22T07:43:16.797Z,10.90
2023-03-22T07:46:14.569Z,11.00
2023-03-22T07:49:03.324Z,11.10
2023-03-22T07:52:23.528Z,11.40
2023-03-22T07:55:12.887Z,11.40
2023-03-22T07:58:06.831Z,11.30
2023-03-22T08:00:54.139Z,11.40
2023-03-22T08:04:00.439Z,11.40
2023-03-22T08:07:01.014Z,11.50
2023-03-22T08:09:49.509Z,11.50
2023-03-22T08:12:37.213Z,11.60
2023-03-22T08:15:32.510Z,11.60
2023-03-22T08:18:20.022Z,11.60
2023-03-22T08:21:07.647Z,11.60
2023-03-22T08:23:57.368Z,11.60
2023-03-22T08:27:10.703Z,11.50
2023-03-22T08:30:11.394Z,11.40
2023-03-22T08:32:58.803Z,11.50
2023-03-22T08:35:46.499Z,11.60
2023-03-22T08:38:34.025Z,11.60
2023-03-22T08:41:23.652Z,11.60
2023-03-22T08:44:11.569Z,11.70
2023-03-22T08:46:58.927Z,11.80
2023-03-22T08:49:46.225Z,12.00
2023-03-22T08:52:43.384Z,11.90
2023-03-22T08:55:58.222Z,11.90
2023-03-22T08:59:10.815Z,12.10
2023-03-22T09:02:13.055Z,12.00
2023-03-22T09:05:01.775Z,12.20
2023-03-22T09:07:52.835Z,12.10
2023-03-22T09:10:52.135Z,12.40
2023-03-22T09:13:41.658Z,12.30
2023-03-22T09:16:31.670Z,12.60
2023-03-22T09:19:21.116Z,12.60
2023-03-22T09:22:08.961Z,12.50
2023-03-22T09:25:07.980Z,12.40
2023-03-22T09:27:55.706Z,12.30
2023-03-22T09:30:42.929Z,12.30
2023-03-22T09:33:33.430Z,12.40
2023-03-22T09:36:21.012Z,12.40
2023-03-22T09:39:10.039Z,12.40
2023-03-22T09:42:00.654Z,12.30
2023-03-22T09:44:49.952Z,12.40
2023-03-22T09:47:46.140Z,12.30
2023-03-22T09:50:36.982Z,12.50
2023-03-22T09:53:25.936Z,12.50
2023-03-22T09:56:19.901Z,12.60
2023-03-22T09:59:13.968Z,12.60
2023-03-22T10:02:04.835Z,12.60
2023-03-22T10:05:00.618Z,12.30
2023-03-22T10:08:14.859Z,12.30
2023-03-22T10:11:02.737Z,12.20
2023-03-22T10:13:58.681Z,12.10
2023-03-22T10:16:46.691Z,12.10
2023-03-22T10:19:37.935Z,12.20
2023-03-22T10:22:30.407Z,12.20
2023-03-22T10:25:22.663Z,12.10
2023-03-22T10:28:19.902Z,12.20
2023-03-22T10:31:07.731Z,12.00
2023-03-22T10:33:59.528Z,12.00
2023-03-22T10:36:49.736Z,12.10
2023-03-22T10:39:40.207Z,11.90
2023-03-22T10:42:31.702Z,11.90
2023-03-22T10:45:20.451Z,12.00
2023-03-22T10:48:12.492Z,11.90
2023-03-22T10:51:00.525Z,11.80
2023-03-22T10:53:50.553Z,11.70
2023-03-22T10:56:37.456Z,11.80
2023-03-22T10:59:48.224Z,11.80
2023-03-22T11:02:35.536Z,11.90
2023-03-22T11:05:25.901Z,12.10
2023-03-22T11:08:16.149Z,12.10
2023-03-22T11:11:07.782Z,11.90
2023-03-22T11:14:01.099Z,12.00
2023-03-22T11:16:56.236Z,12.20
2023-03-22T11:19:52.333Z,12.40
2023-03-22T11:22:41.635Z,12.40
2023-03-22T11:25:31.631Z,12.80
2023-03-22T11:28:20.636Z,12.70
2023-03-22T11:31:09.444Z,13.10
2023-03-22T11:34:00.250Z,12.70
2023-03-22T11:36:52.766Z,13.00
2023-03-22T11:39:48.530Z,12.90
2023-03-22T11:42:36.745Z,12.80
2023-03-22T11:45:28.008Z,12.70
2023-03-22T11:48:19.179Z,12.70
2023-03-22T11:51:12.658Z,12.80
2023-03-22T11:54:06.772Z,12.50
2023-03-22T11:56:58.026Z,12.70
2023-03-22T11:59:51.439Z,12.80
2023-03-22T12:02:45.381Z,12.50
2023-03-22T12:05:34.797Z,12.50
2023-03-22T12:08:29.579Z,12.60
2023-03-22T12:11:22.176Z,12.50
2023-03-22T12:14:17.898Z,12.60
2023-03-22T12:17:11.684Z,12.30
2023-03-22T12:20:06.318Z,12.40
2023-03-22T12:22:56.163Z,12.70
2023-03-22T12:25:51.379Z,12.70
2023-03-22T12:28:43.134Z,12.70
2023-03-22T12:31:33.459Z,12.80
2023-03-22T12:34:24.259Z,12.80
2023-03-22T12:37:18.946Z,12.80
2023-03-22T12:40:10.153Z,12.90
2023-03-22T12:43:07.841Z,13.10
2023-03-22T12:46:00.458Z,13.00
2023-03-22T12:48:51.634Z,13.10
2023-03-22T12:51:39.531Z,13.00
2023-03-22T12:54:27.582Z,13.00
2023-03-22T12:57:16.941Z,12.80
2023-03-22T13:00:17.687Z,12.80
2023-03-22T13:03:10.670Z,12.60
2023-03-22T13:06:05.260Z,12.60
2023-03-22T13:09:15.814Z,12.60
2023-03-22T13:12:29.980Z,12.50
2023-03-22T13:15:41.204Z,12.50
2023-03-22T13:18:58.174Z,12.50
2023-03-22T13:21:45.950Z,12.60
2023-03-22T13:24:34.476Z,12.50
2023-03-22T13:27:21.468Z,12.50
2023-03-22T13:30:18.051Z,12.50
2023-03-22T13:33:22.140Z,12.50
2023-03-22T13:36:25.048Z,12.50
2023-03-22T13:39:16.102Z,12.50
2023-03-22T13:42:10.771Z,12.60
2023-03-22T13:45:02.460Z,12.60
2023-03-22T13:48:05.485Z,12.70
2023-03-22T13:50:54.462Z,12.70
2023-03-22T13:53:46.086Z,12.60
2023-03-22T13:56:48.630Z,12.60
2023-03-22T14:00:11.273Z,12.60
2023-03-22T14:03:03.567Z,12.70
2023-03-22T14:06:04.250Z,12.60
2023-03-22T14:08:55.564Z,12.40
2023-03-22T14:11:48.439Z,12.50
2023-03-22T14:14:43.135Z,12.50
2023-03-22T14:17:36.271Z,12.60
2023-03-22T14:20:26.177Z,12.60
